createdAt,value
2022-08-13T00:01:38.901Z,96.60
2022-08-13T00:04:20.869Z,97.30
2022-08-13T00:07:07.479Z,97.70
2022-08-13T00:09:39.894Z,97.70
2022-08-13T00:12:45.205Z,98.10
2022-08-13T00:15:22.308Z,98.40
2022-08-13T00:18:03.681Z,98.50
2022-08-13T00:20:51.971Z,98.50
2022-08-13T00:23:23.974Z,98.50
2022-08-13T00:26:12.374Z,98.50
2022-08-13T00:28:44.385Z,98.50
2022-08-13T00:31:11.075Z,98.50
2022-08-13T00:33:48.628Z,98.50
2022-08-13T00:36:29.539Z,98.50
2022-08-13T00:39:05.768Z,98.50
2022-08-13T00:41:57.686Z,98.50
2022-08-13T00:44:26.391Z,98.50
2022-08-13T00:47:15.106Z,98.50
2022-08-13T00:50:00.140Z,98.50
2022-08-13T00:52:32.006Z,98.50
2022-08-13T00:55:02.032Z,98.20
2022-08-13T00:57:30.111Z,98.10
2022-08-13T00:59:57.123Z,98.30
2022-08-13T01:02:32.281Z,98.20
2022-08-13T01:05:01.972Z,98.20
2022-08-13T01:07:52.141Z,97.90
2022-08-13T01:10:20.873Z,97.90
2022-08-13T01:12:51.689Z,97.90
2022-08-13T01:15:19.959Z,97.90
2022-08-13T01:17:50.525Z,97.70
2022-08-13T01:20:33.607Z,97.80
2022-08-13T01:23:03.933Z,98.20
2022-08-13T01:25:31.489Z,98.20
2022-08-13T01:28:19.968Z,98.20
2022-08-13T01:30:48.445Z,98.50
2022-08-13T01:33:18.302Z,98.50
2022-08-13T01:35:46.622Z,98.50
2022-08-13T01:38:16.038Z,98.50
2022-08-13T01:40:52.795Z,98.50
2022-08-13T01:43:22.542Z,98.50
2022-08-13T01:45:52.807Z,98.50
2022-08-13T01:48:42.892Z,98.50
2022-08-13T01:51:41.431Z,98.50
2022-08-13T01:54:39.228Z,98.50
2022-08-13T01:57:03.385Z,98.50
2022-08-13T02:00:01.686Z,98.50
2022-08-13T02:02:43.262Z,98.50
2022-08-13T02:05:10.821Z,98.50
2022-08-13T02:08:01.547Z,98.50
2022-08-13T02:10:26.661Z,98.50
2022-08-13T02:12:53.662Z,98.50
2022-08-13T02:15:30.359Z,98.50
2022-08-13T02:18:18.661Z,98.50
2022-08-13T02:20:50.475Z,98.50
2022-08-13T02:23:52.980Z,98.50
2022-08-13T02:26:11.736Z,98.50
2022-08-13T02:28:40.490Z,98.50
2022-08-13T02:31:26.017Z,98.50
2022-08-13T02:33:58.628Z,98.50
2022-08-13T02:36:27.058Z,98.50
2022-08-13T02:38:59.836Z,98.50
2022-08-13T02:41:51.459Z,98.50
2022-08-13T02:44:23.351Z,98.50
2022-08-13T02:47:00.633Z,98.50
2022-08-13T02:49:30.421Z,98.50
2022-08-13T02:52:11.610Z,98.50
2022-08-13T02:54:50.024Z,98.50
2022-08-13T02:57:23.394Z,98.50
2022-08-13T03:00:01.508Z,98.50
2022-08-13T03:02:40.481Z,98.50
2022-08-13T03:05:10.503Z,98.50
2022-08-13T03:07:51.685Z,98.50
2022-08-13T03:10:24.735Z,98.50
2022-08-13T03:13:22.006Z,98.50
2022-08-13T03:16:02.022Z,98.50
2022-08-13T03:18:40.817Z,98.50
2022-08-13T03:21:41.743Z,98.50
2022-08-13T03:24:21.814Z,98.50
2022-08-13T03:27:00.181Z,98.50
2022-08-13T03:29:29.859Z,98.50
2022-08-13T03:31:56.973Z,98.50
2022-08-13T03:34:24.191Z,98.50
2022-08-13T03:36:57.667Z,98.50
2022-08-13T03:39:26.480Z,98.50
2022-08-13T03:41:53.348Z,98.50
2022-08-13T03:44:28.804Z,98.50
2022-08-13T03:46:56.235Z,98.50
2022-08-13T03:49:24.363Z,98.50
2022-08-13T03:51:56.224Z,98.50
2022-08-13T03:54:26.151Z,98.50
2022-08-13T03:56:56.340Z,98.50
2022-08-13T03:59:23.849Z,98.50
2022-08-13T04:01:56.869Z,98.50
2022-08-13T04:04:24.817Z,98.50
2022-08-13T04:07:02.688Z,98.50
2022-08-13T04:09:29.434Z,98.50
2022-08-13T04:12:01.780Z,98.50
2022-08-13T04:14:36.129Z,98.50
2022-08-13T04:17:06.468Z,98.50
2022-08-13T04:19:34.522Z,98.50
2022-08-13T04:22:02.546Z,98.50
2022-08-13T04:24:29.229Z,98.50
2022-08-13T04:26:59.948Z,98.50
2022-08-13T04:29:26.870Z,98.50
2022-08-13T04:32:05.055Z,98.50
2022-08-13T04:34:41.161Z,98.50
2022-08-13T04:37:21.204Z,98.50
2022-08-13T04:40:06.529Z,98.20
2022-08-13T04:42:49.648Z,97.80
2022-08-13T04:45:17.945Z,98.40
2022-08-13T04:47:45.171Z,98.50
2022-08-13T04:50:13.163Z,98.50
2022-08-13T04:52:49.086Z,98.50
2022-08-13T04:55:16.983Z,98.50
2022-08-13T04:57:55.900Z,98.50
2022-08-13T05:00:30.313Z,98.50
2022-08-13T05:02:57.529Z,98.50
2022-08-13T05:05:25.933Z,98.50
2022-08-13T05:07:54.298Z,98.50
2022-08-13T05:10:30.116Z,98.10
2022-08-13T05:13:03.094Z,97.50
2022-08-13T05:15:42.183Z,97.10
2022-08-13T05:18:17.518Z,96.90
2022-08-13T05:20:52.499Z,96.20
2022-08-13T05:26:07.175Z,95.90
2022-08-13T05:26:30.013Z,96.00
2022-08-13T05:29:03.984Z,95.90
2022-08-13T05:31:53.401Z,97.30
2022-08-13T05:34:22.148Z,97.30
2022-08-13T05:38:15.776Z,96.10
2022-08-13T05:39:35.862Z,96.50
2022-08-13T05:42:10.998Z,95.80
2022-08-13T05:44:38.871Z,94.40
2022-08-13T05:47:07.574Z,94.10
2022-08-13T05:49:54.247Z,93.30
2022-08-13T05:52:36.351Z,92.90
2022-08-13T05:56:07.070Z,92.00
2022-08-13T05:58:05.366Z,91.10
2022-08-13T06:01:10.767Z,90.10
2022-08-13T06:04:31.774Z,90.70
2022-08-13T06:06:34.380Z,90.70
2022-08-13T06:09:02.166Z,89.60
2022-08-13T06:12:26.427Z,89.90
2022-08-13T06:14:23.281Z,90.30
2022-08-13T06:17:00.009Z,90.50
2022-08-13T06:19:30.500Z,90.80
2022-08-13T06:22:02.625Z,91.20
2022-08-13T06:24:45.403Z,92.20
2022-08-13T06:27:54.267Z,92.60
2022-08-13T06:30:28.029Z,92.20
2022-08-13T06:33:57.605Z,91.30
2022-08-13T06:36:08.059Z,89.50
2022-08-13T06:38:50.855Z,87.20
2022-08-13T06:41:23.216Z,86.80
2022-08-13T06:44:01.461Z,86.60
2022-08-13T06:46:30.669Z,86.90
2022-08-13T06:49:03.492Z,86.80
2022-08-13T06:51:34.771Z,85.40
2022-08-13T06:54:26.631Z,86.30
2022-08-13T06:57:17.280Z,87.90
2022-08-13T07:00:05.039Z,88.50
2022-08-13T07:02:38.452Z,89.50
2022-08-13T07:05:07.816Z,88.60
2022-08-13T07:07:44.816Z,87.10
2022-08-13T07:10:15.131Z,85.70
2022-08-13T07:12:44.060Z,84.50
2022-08-13T07:15:25.181Z,82.50
2022-08-13T07:18:06.863Z,81.90
2022-08-13T07:20:34.593Z,78.80
2022-08-13T07:24:37.716Z,80.10
2022-08-13T07:25:56.254Z,80.00
2022-08-13T07:28:46.291Z,80.40
2022-08-13T07:31:15.808Z,80.40
2022-08-13T07:33:57.474Z,80.30
2022-08-13T07:36:32.567Z,79.70
2022-08-13T07:39:07.191Z,80.90
2022-08-13T07:42:03.245Z,81.10
2022-08-13T07:44:37.377Z,80.60
2022-08-13T07:47:12.188Z,79.40
2022-08-13T07:49:46.308Z,78.80
2022-08-13T07:52:16.569Z,78.30
2022-08-13T07:54:49.625Z,78.50
2022-08-13T07:57:18.561Z,78.30
2022-08-13T08:00:03.449Z,79.00
2022-08-13T08:02:41.881Z,79.10
2022-08-13T08:05:14.262Z,79.00
2022-08-13T08:08:04.896Z,79.10
2022-08-13T08:10:30.357Z,77.00
2022-08-13T08:13:00.831Z,76.90
2022-08-13T08:16:02.507Z,76.80
2022-08-13T08:18:35.406Z,77.10
2022-08-13T08:21:47.756Z,74.40
2022-08-13T08:24:02.369Z,75.00
2022-08-13T08:26:32.670Z,74.60
2022-08-13T08:29:04.533Z,74.30
2022-08-13T08:31:59.798Z,74.40
2022-08-13T08:34:20.551Z,73.90
2022-08-13T08:36:49.734Z,73.50
2022-08-13T08:39:38.730Z,73.80
2022-08-13T08:42:36.142Z,73.20
2022-08-13T08:45:07.812Z,73.90
2022-08-13T08:47:57.413Z,72.40
2022-08-13T08:50:29.350Z,73.00
2022-08-13T08:53:34.419Z,72.60
2022-08-13T08:56:09.307Z,74.70
2022-08-13T08:58:42.669Z,72.90
2022-08-13T09:01:14.319Z,73.00
2022-08-13T09:03:57.190Z,73.50
2022-08-13T09:06:53.528Z,74.70
2022-08-13T09:09:19.759Z,74.30
2022-08-13T09:11:54.427Z,75.30
2022-08-13T09:14:27.472Z,74.90
2022-08-13T09:16:56.564Z,75.50
2022-08-13T09:19:45.873Z,74.80
2022-08-13T09:22:16.055Z,74.40
2022-08-13T09:24:48.487Z,73.90
2022-08-13T09:27:20.434Z,74.20
2022-08-13T09:30:00.567Z,73.80
2022-08-13T09:32:34.010Z,72.40
2022-08-13T09:35:04.394Z,72.50
2022-08-13T09:37:47.612Z,71.90
2022-08-13T09:40:32.526Z,70.50
2022-08-13T09:43:43.832Z,71.30
2022-08-13T09:46:10.225Z,71.40
2022-08-13T09:48:38.223Z,71.20
2022-08-13T09:51:15.361Z,72.90
2022-08-13T09:54:02.770Z,73.20
2022-08-13T09:56:38.424Z,71.70
2022-08-13T09:59:14.999Z,71.50
2022-08-13T10:01:56.662Z,72.90
2022-08-13T10:04:27.989Z,72.90
2022-08-13T10:07:01.357Z,70.80
2022-08-13T10:09:32.959Z,70.20
2022-08-13T10:12:18.929Z,71.00
2022-08-13T10:14:57.589Z,71.80
2022-08-13T10:17:42.323Z,70.90
2022-08-13T10:20:17.431Z,71.10
2022-08-13T10:22:45.123Z,71.50
2022-08-13T10:25:12.922Z,70.80
2022-08-13T10:27:53.095Z,70.40
2022-08-13T10:30:57.879Z,70.20
2022-08-13T10:33:14.281Z,69.80
2022-08-13T10:35:43.154Z,70.20
2022-08-13T10:38:29.819Z,70.40
2022-08-13T10:40:59.057Z,70.90
2022-08-13T10:43:27.129Z,69.40
2022-08-13T10:46:27.495Z,68.60
2022-08-13T10:48:58.854Z,68.50
2022-08-13T10:51:36.413Z,68.50
2022-08-13T10:54:21.509Z,68.80
2022-08-13T10:56:59.647Z,69.80
2022-08-13T10:59:26.771Z,68.80
2022-08-13T11:01:53.510Z,69.40
2022-08-13T11:04:20.497Z,68.30
2022-08-13T11:07:02.085Z,67.80
2022-08-13T11:09:36.526Z,69.10
2022-08-13T11:12:04.115Z,70.30
2022-08-13T11:14:38.218Z,69.40
2022-08-13T11:17:13.398Z,69.30
2022-08-13T11:20:03.551Z,70.20
2022-08-13T11:22:31.066Z,70.10
2022-08-13T11:25:18.587Z,70.60
2022-08-13T11:27:51.847Z,69.40
2022-08-13T11:30:31.494Z,69.80
2022-08-13T11:33:05.433Z,69.50
2022-08-13T11:35:35.311Z,69.60
2022-08-13T11:38:13.629Z,69.80
2022-08-13T11:41:02.319Z,69.90
2022-08-13T11:43:50.811Z,68.10
2022-08-13T11:46:20.454Z,68.10
2022-08-13T11:48:53.693Z,68.90
2022-08-13T11:51:48.965Z,69.00
2022-08-13T11:54:30.628Z,69.00
2022-08-13T11:57:09.633Z,68.50
2022-08-13T11:59:42.188Z,68.00
2022-08-13T12:02:14.785Z,65.90
2022-08-13T12:04:42.345Z,66.70
2022-08-13T12:07:09.123Z,67.10
2022-08-13T12:09:46.290Z,66.40
2022-08-13T12:12:21.233Z,67.30
2022-08-13T12:14:52.605Z,67.00
2022-08-13T12:17:48.617Z,68.50
2022-08-13T12:20:16.067Z,67.50
2022-08-13T12:22:53.022Z,68.40
2022-08-13T12:26:01.398Z,68.30
2022-08-13T12:28:14.623Z,68.50
2022-08-13T12:30:48.083Z,67.70
2022-08-13T12:33:18.624Z,68.00
2022-08-13T12:35:56.787Z,67.70
2022-08-13T12:38:30.113Z,66.20
2022-08-13T12:41:00.127Z,66.60
2022-08-13T12:44:09.998Z,66.30
2022-08-13T12:46:33.203Z,67.40
2022-08-13T12:49:02.177Z,68.00
2022-08-13T12:51:40.859Z,67.80
2022-08-13T12:54:57.755Z,67.70
2022-08-13T12:57:05.835Z,67.30
2022-08-13T12:59:57.491Z,68.00
2022-08-13T13:02:30.059Z,66.10
2022-08-13T13:05:15.201Z,66.70
2022-08-13T13:08:01.910Z,65.40
2022-08-13T13:10:34.947Z,66.40
2022-08-13T13:13:03.521Z,65.10
2022-08-13T13:15:42.685Z,65.60
2022-08-13T13:18:48.617Z,64.40
2022-08-13T13:21:09.169Z,63.50
2022-08-13T13:23:39.787Z,64.50
2022-08-13T13:26:24.721Z,63.80
2022-08-13T13:28:55.419Z,64.80
2022-08-13T13:31:27.335Z,65.20
2022-08-13T13:34:09.044Z,65.30
2022-08-13T13:36:35.989Z,64.70
2022-08-13T13:39:02.720Z,64.60
2022-08-13T13:41:54.210Z,64.10
2022-08-13T13:44:37.692Z,64.10
2022-08-13T13:47:03.616Z,63.30
2022-08-13T13:49:30.901Z,64.00
2022-08-13T13:51:59.814Z,64.10
2022-08-13T13:54:28.128Z,63.00
2022-08-13T13:56:56.264Z,63.50
2022-08-13T13:59:36.252Z,61.70
2022-08-13T14:02:11.336Z,61.50
2022-08-13T14:05:05.915Z,60.70
2022-08-13T14:07:48.979Z,61.30
2022-08-13T14:10:16.705Z,60.40
2022-08-13T14:13:05.757Z,60.60
2022-08-13T14:15:34.285Z,59.90
2022-08-13T14:18:23.909Z,60.00
2022-08-13T14:20:56.509Z,59.30
2022-08-13T14:23:25.831Z,59.40
2022-08-13T14:26:07.573Z,59.80
2022-08-13T14:28:37.935Z,59.50
2022-08-13T14:31:06.167Z,57.70
2022-08-13T14:33:54.968Z,58.00
2022-08-13T14:36:29.312Z,58.60
2022-08-13T14:38:59.408Z,59.10
2022-08-13T14:41:26.152Z,58.50
2022-08-13T14:44:00.845Z,59.70
2022-08-13T14:46:32.690Z,58.50
2022-08-13T14:49:01.496Z,58.50
2022-08-13T14:51:53.038Z,58.90
2022-08-13T14:54:17.318Z,59.20
2022-08-13T14:56:49.589Z,59.40
2022-08-13T14:59:19.765Z,59.50
2022-08-13T15:01:53.603Z,59.10
2022-08-13T15:04:29.138Z,58.70
2022-08-13T15:06:56.157Z,57.90
2022-08-13T15:09:24.565Z,58.30
2022-08-13T15:11:55.311Z,58.80
2022-08-13T15:14:25.466Z,59.50
2022-08-13T15:16:55.019Z,58.90
2022-08-13T15:19:22.486Z,58.70
2022-08-13T15:21:51.883Z,59.50
2022-08-13T15:24:41.046Z,60.40
2022-08-13T15:27:39.970Z,59.70
2022-08-13T15:30:16.725Z,59.90
2022-08-13T15:32:53.303Z,59.40
2022-08-13T15:35:42.273Z,60.90
2022-08-13T15:38:11.731Z,59.60
2022-08-13T15:40:48.642Z,60.00
2022-08-13T15:43:35.440Z,60.10
2022-08-13T15:46:03.882Z,59.50
2022-08-13T15:48:31.337Z,60.40
2022-08-13T15:51:00.244Z,61.00
2022-08-13T15:53:29.291Z,60.70
2022-08-13T15:55:58.164Z,59.80
2022-08-13T15:58:31.920Z,61.60
2022-08-13T16:01:21.214Z,61.40
2022-08-13T16:03:55.921Z,61.10
2022-08-13T16:06:28.374Z,61.10
2022-08-13T16:08:58.347Z,61.50
2022-08-13T16:11:43.749Z,60.50
2022-08-13T16:14:21.976Z,61.40
2022-08-13T16:16:58.453Z,61.80
2022-08-13T16:19:51.945Z,60.00
2022-08-13T16:22:18.359Z,60.50
2022-08-13T16:24:50.872Z,60.90
2022-08-13T16:27:28.916Z,61.30
2022-08-13T16:30:02.772Z,62.10
2022-08-13T16:32:40.183Z,62.80
2022-08-13T16:35:16.934Z,62.30
2022-08-13T16:37:59.304Z,63.10
2022-08-13T16:40:35.804Z,63.80
2022-08-13T16:43:10.194Z,63.50
2022-08-13T16:45:42.174Z,64.30
2022-08-13T16:48:14.505Z,64.60
2022-08-13T16:50:47.671Z,64.10
2022-08-13T16:54:23.998Z,64.50
2022-08-13T16:56:02.122Z,64.40
2022-08-13T16:58:30.110Z,64.90
2022-08-13T17:01:00.105Z,66.00
2022-08-13T17:03:58.443Z,66.10
2022-08-13T17:06:52.293Z,65.70
2022-08-13T17:09:29.613Z,65.30
2022-08-13T17:12:03.811Z,64.50
2022-08-13T17:14:41.298Z,65.50
2022-08-13T17:17:11.827Z,64.90
2022-08-13T17:19:56.758Z,64.10
2022-08-13T17:22:27.006Z,64.10
2022-08-13T17:24:57.232Z,65.60
2022-08-13T17:27:24.335Z,66.40
2022-08-13T17:29:55.352Z,66.60
2022-08-13T17:32:29.303Z,67.00
2022-08-13T17:34:55.990Z,67.70
2022-08-13T17:37:23.783Z,68.10
2022-08-13T17:39:56.065Z,68.20
2022-08-13T17:44:02.564Z,68.80
2022-08-13T17:45:28.889Z,69.60
2022-08-13T17:48:02.938Z,70.20
2022-08-13T17:50:42.304Z,70.80
2022-08-13T17:53:15.858Z,72.30
2022-08-13T17:55:51.168Z,72.90
2022-08-13T17:58:34.254Z,73.40
2022-08-13T18:01:23.271Z,73.50
2022-08-13T18:03:59.587Z,74.30
2022-08-13T18:06:32.647Z,75.80
2022-08-13T18:09:07.631Z,75.80
2022-08-13T18:11:42.215Z,76.10
2022-08-13T18:14:21.596Z,76.20
2022-08-13T18:18:14.310Z,76.60
2022-08-13T18:19:52.229Z,77.20
2022-08-13T18:22:27.919Z,77.20
2022-08-13T18:25:00.083Z,77.10
2022-08-13T18:28:15.837Z,77.00
2022-08-13T18:30:26.795Z,77.00
2022-08-13T18:33:01.915Z,77.30
2022-08-13T18:35:30.175Z,77.60
2022-08-13T18:37:57.301Z,77.70
2022-08-13T18:40:25.008Z,78.80
2022-08-13T18:42:54.761Z,79.00
2022-08-13T18:45:24.732Z,76.70
2022-08-13T18:48:13.452Z,77.30
2022-08-13T18:50:52.360Z,78.00
2022-08-13T18:53:30.894Z,78.40
2022-08-13T18:56:13.631Z,78.60
2022-08-13T18:58:43.158Z,78.40
2022-08-13T19:01:15.388Z,78.70
2022-08-13T19:03:59.240Z,78.90
2022-08-13T19:06:33.074Z,79.20
2022-08-13T19:09:04.524Z,79.50
2022-08-13T19:11:44.647Z,79.60
2022-08-13T19:14:23.489Z,79.90
2022-08-13T19:16:57.605Z,81.40
2022-08-13T19:19:55.367Z,79.70
2022-08-13T19:22:20.104Z,79.50
2022-08-13T19:24:49.293Z,78.80
2022-08-13T19:27:21.145Z,79.10
2022-08-13T19:30:01.927Z,78.70
2022-08-13T19:32:29.338Z,79.10
2022-08-13T19:34:58.581Z,80.00
2022-08-13T19:37:25.750Z,79.60
2022-08-13T19:39:59.528Z,79.70
2022-08-13T19:42:51.793Z,79.30
2022-08-13T19:45:24.483Z,79.60
2022-08-13T19:47:58.776Z,78.90
2022-08-13T19:50:32.016Z,79.60
2022-08-13T19:53:04.070Z,80.20
2022-08-13T19:55:53.374Z,79.80
2022-08-13T19:58:19.257Z,80.20
2022-08-13T20:00:46.781Z,80.10
2022-08-13T20:03:40.323Z,80.60
2022-08-13T20:06:20.440Z,81.30
2022-08-13T20:08:56.272Z,81.70
2022-08-13T20:11:25.331Z,82.30
2022-08-13T20:13:57.438Z,82.60
2022-08-13T20:16:26.128Z,83.00
2022-08-13T20:18:54.865Z,82.90
2022-08-13T20:21:27.816Z,82.50
2022-08-13T20:23:55.518Z,83.40
2022-08-13T20:26:22.327Z,83.20
2022-08-13T20:28:49.562Z,83.80
2022-08-13T20:31:16.898Z,84.20
2022-08-13T20:33:44.568Z,84.30
2022-08-13T20:36:12.504Z,84.70
2022-08-13T20:38:47.565Z,84.40
2022-08-13T20:41:16.185Z,84.70
2022-08-13T20:43:57.931Z,84.00
2022-08-13T20:46:28.243Z,84.40
2022-08-13T20:48:56.711Z,83.90
2022-08-13T20:51:27.368Z,84.40
2022-08-13T20:53:57.224Z,84.20
2022-08-13T20:56:42.385Z,84.40
2022-08-13T21:00:46.252Z,84.60
2022-08-13T21:01:58.616Z,84.40
2022-08-13T21:04:25.357Z,84.40
2022-08-13T21:06:56.690Z,84.20
2022-08-13T21:09:25.517Z,84.70
2022-08-13T21:11:52.457Z,84.70
2022-08-13T21:14:30.614Z,84.70
2022-08-13T21:17:02.455Z,84.60
2022-08-13T21:19:37.425Z,84.70
2022-08-13T21:22:07.236Z,84.70
2022-08-13T21:24:37.451Z,84.70
2022-08-13T21:27:24.231Z,83.70
2022-08-13T21:30:04.044Z,84.20
2022-08-13T21:32:34.284Z,84.20
2022-08-13T21:35:03.320Z,83.70
2022-08-13T21:37:32.310Z,83.40
2022-08-13T21:39:59.382Z,82.90
2022-08-13T21:42:35.395Z,83.80
2022-08-13T21:45:07.104Z,83.70
2022-08-13T21:47:39.972Z,84.00
2022-08-13T21:50:10.673Z,84.70
2022-08-13T21:52:44.256Z,85.10
2022-08-13T21:55:16.094Z,85.00
2022-08-13T21:57:44.853Z,85.70
2022-08-13T22:00:26.821Z,85.90
2022-08-13T22:02:56.395Z,86.30
2022-08-13T22:05:24.732Z,86.60
2022-08-13T22:08:11.416Z,86.70
2022-08-13T22:10:39.741Z,86.90
2022-08-13T22:13:15.625Z,86.90
2022-08-13T22:15:53.467Z,86.90
2022-08-13T22:18:23.825Z,87.50
2022-08-13T22:20:55.510Z,87.60
2022-08-13T22:23:22.685Z,87.80
2022-08-13T22:25:53.661Z,87.50
2022-08-13T22:28:39.453Z,87.50
2022-08-13T22:31:08.880Z,87.80
2022-08-13T22:33:38.693Z,88.20
2022-08-13T22:36:15.850Z,88.30
2022-08-13T22:38:47.550Z,88.30
2022-08-13T22:41:16.473Z,89.50
2022-08-13T22:43:47.480Z,89.50
2022-08-13T22:46:15.142Z,89.60
2022-08-13T22:48:44.566Z,89.50
2022-08-13T22:51:12.939Z,89.70
2022-08-13T22:53:42.317Z,89.60
2022-08-13T22:56:13.268Z,89.30
2022-08-13T22:58:41.435Z,88.90
2022-08-13T23:01:10.118Z,89.20
2022-08-13T23:03:38.524Z,89.00
2022-08-13T23:06:34.971Z,89.30
2022-08-13T23:08:58.790Z,89.60
2022-08-13T23:11:27.378Z,89.80
2022-08-13T23:13:54.639Z,90.10
2022-08-13T23:16:24.595Z,90.40
2022-08-13T23:18:58.358Z,90.70
2022-08-13T23:21:27.042Z,91.00
2022-08-13T23:23:56.541Z,91.50
2022-08-13T23:26:30.275Z,92.20
2022-08-13T23:29:00.261Z,92.30
2022-08-13T23:31:29.642Z,92.00
2022-08-13T23:33:57.912Z,92.00
2022-08-13T23:36:27.279Z,92.00
2022-08-13T23:38:55.393Z,92.10
2022-08-13T23:41:23.288Z,92.20
2022-08-13T23:43:51.085Z,92.30
2022-08-13T23:46:18.478Z,93.30
2022-08-13T23:48:47.079Z,93.70
2022-08-13T23:51:23.698Z,93.70
2022-08-13T23:53:56.604Z,93.80
2022-08-13T23:56:38.117Z,93.80
2022-08-13T23:59:17.741Z,93.80
